Union Grove, WI

2:23 PM CDT on April 18, 2015 (GMT -0500)
Yorkville-Union Grove | | Change Station
CLOSE
Current Station
Personal Weather Station
Location: Union Grove, WI
Elevation: 761 ft
Nearby Weather Stations

Elev 761 ft 42.69 °N, 88.00 °W | Updated 10 minutes ago

Clear
Clear
58.7 °F
Feels Like 58.7 °F
N
4.0
Wind Variable Wind from North
Gusts 15.0 mph

Today
High -- | Low -- °F
--% Chance of Precip.
Yesterday
High -- | Low -- °F
Precip. -- in
6:06 AM 7:37 PM
New Moon, 0% visible
Pressure 30.12 in
Visibility 10.0 miles
Clouds Clear
Dew Point 41 °F
Humidity 52%
Rainfall 0.00 in
Snow Depth Not available.
UV 9 out of 12
Pollen 10.70 out of 12
Air Quality Not available.
Flu Activity Local Activity
METAR KENW 181853Z 03012KT 10SM CLR 13/03 A3011 RMK AO2 SLP198 T01330033

More Conditions Fewer Conditions

Pressure 30.12 in
Visibility 10.0 miles
Clouds Clear
Dew Point 41 °F
Humidity 52%
Rainfall 0.00 in
Snow Depth Not available.
UV 9 out of 12
Pollen 10.70 out of 12
Air Quality Not available.
Flu Activity Local Activity
METAR KENW 181853Z 03012KT 10SM CLR 13/03 A3011 RMK AO2 SLP198 T01330033

More Conditions Fewer Conditions

10-Day Weather Forecast

Almanac

Astronomy

Apr. 18, 2015 Rise Set
Actual Time
Civil Twilight
Nautical Twilight
Astronomical Twilight
Moon
Length of Visible Light
Length of Day
Tomorrow will be .
, % of the Moon is Illuminated

Today's Extremes

State Highs State Lows

Community

WunderPhotos

Upload Photos

1,814,501 photos uploaded!

WunderBlogs® & News

Nearby

Air Quality

  Air Quality AQ Index Pollutant
Not available.

Snow Depth

Station Depth Elevation

Earthquake Activity

City Distance Mag. Time & Date
Minimum magnitude displayed is 2.5.

Coastal Water Temperatures

Place Temperature

Stations

Nearby Weather Stations

Station Location Temp. Windchill Dew Point Humidity Wind Precip. Elev Updated Type